createdAt,value
2022-08-03T00:01:40.907Z,2.10
2022-08-03T00:04:09.361Z,2.15
2022-08-03T00:06:37.454Z,2.22
2022-08-03T00:09:08.022Z,2.63
2022-08-03T00:11:36.613Z,2.33
2022-08-03T00:14:05.304Z,2.40
2022-08-03T00:16:32.941Z,2.20
2022-08-03T00:19:01.024Z,2.10
2022-08-03T00:21:29.225Z,2.17
2022-08-03T00:23:57.066Z,2.30
2022-08-03T00:26:24.747Z,2.10
2022-08-03T00:28:52.471Z,2.25
2022-08-03T00:31:23.043Z,2.42
2022-08-03T00:34:07.730Z,2.17
2022-08-03T00:36:36.114Z,2.38
2022-08-03T00:39:03.753Z,2.17
2022-08-03T00:41:31.398Z,2.10
2022-08-03T00:43:59.028Z,2.42
2022-08-03T00:46:26.708Z,2.65
2022-08-03T00:48:54.711Z,2.50
2022-08-03T00:51:22.860Z,2.20
2022-08-03T00:53:50.865Z,2.65
2022-08-03T00:56:18.589Z,2.20
2022-08-03T00:58:46.903Z,2.45
2022-08-03T01:01:14.904Z,2.22
2022-08-03T01:03:43.063Z,2.60
2022-08-03T01:06:18.403Z,2.40
2022-08-03T01:08:51.926Z,2.65
2022-08-03T01:11:26.034Z,2.20
2022-08-03T01:14:18.808Z,1.83
2022-08-03T01:16:53.097Z,2.20
2022-08-03T01:19:20.722Z,2.00
2022-08-03T01:22:06.774Z,2.40
2022-08-03T01:24:46.380Z,2.17
2022-08-03T01:27:18.788Z,2.65
2022-08-03T01:29:46.568Z,2.50
2022-08-03T01:32:54.511Z,2.60
2022-08-03T01:35:15.272Z,2.40
2022-08-03T01:37:51.446Z,1.98
2022-08-03T01:40:21.178Z,2.42
2022-08-03T01:42:50.297Z,2.03
2022-08-03T01:45:18.881Z,2.50
2022-08-03T01:47:47.333Z,1.98
2022-08-03T01:50:16.278Z,2.80
2022-08-03T01:52:46.872Z,2.40
2022-08-03T01:55:15.053Z,2.35
2022-08-03T01:58:05.741Z,2.65
2022-08-03T02:00:32.638Z,2.20
2022-08-03T02:03:01.224Z,2.30
2022-08-03T02:05:29.604Z,2.55
2022-08-03T02:07:57.569Z,2.30
2022-08-03T02:10:35.351Z,2.50
2022-08-03T02:13:04.413Z,2.33
2022-08-03T02:15:33.500Z,2.78
2022-08-03T02:18:01.884Z,2.10
2022-08-03T02:20:33.004Z,2.42
2022-08-03T02:23:00.828Z,1.70
2022-08-03T02:25:29.454Z,2.10
2022-08-03T02:27:58.752Z,2.15
2022-08-03T02:30:30.608Z,2.70
2022-08-03T02:32:58.652Z,1.98
2022-08-03T02:35:27.714Z,2.20
2022-08-03T02:37:58.986Z,2.15
2022-08-03T02:40:27.942Z,2.15
2022-08-03T02:42:58.696Z,2.00
2022-08-03T02:45:27.756Z,2.15
2022-08-03T02:47:57.643Z,2.30
2022-08-03T02:50:26.386Z,2.10
2022-08-03T02:52:56.031Z,2.03
2022-08-03T02:55:24.896Z,2.17
2022-08-03T02:57:52.741Z,2.10
2022-08-03T03:00:28.100Z,2.22
2022-08-03T03:02:58.370Z,2.15
2022-08-03T03:05:55.894Z,2.40
2022-08-03T03:08:18.849Z,2.25
2022-08-03T03:10:49.253Z,2.20
2022-08-03T03:13:23.529Z,2.17
2022-08-03T03:15:51.685Z,1.90
2022-08-03T03:18:22.623Z,1.80
2022-08-03T03:20:51.669Z,2.30
2022-08-03T03:23:20.257Z,2.10
2022-08-03T03:25:48.294Z,1.70
2022-08-03T03:28:16.189Z,2.05
2022-08-03T03:30:44.285Z,2.00
2022-08-03T03:33:13.101Z,2.10
2022-08-03T03:35:42.352Z,2.15
2022-08-03T03:38:10.028Z,1.90
2022-08-03T03:40:38.318Z,2.10
2022-08-03T03:43:09.865Z,1.98
2022-08-03T03:45:37.805Z,2.10
2022-08-03T03:48:06.057Z,2.03
2022-08-03T03:50:34.691Z,1.88
2022-08-03T03:53:02.899Z,2.13
2022-08-03T03:55:30.655Z,1.90
2022-08-03T03:57:58.307Z,2.17
2022-08-03T04:00:26.303Z,1.90
2022-08-03T04:02:53.965Z,1.70
2022-08-03T04:05:44.252Z,2.00
2022-08-03T04:08:33.768Z,2.17
2022-08-03T04:11:20.321Z,1.90
2022-08-03T04:13:57.033Z,1.90
2022-08-03T04:16:31.898Z,2.13
2022-08-03T04:19:08.697Z,1.70
2022-08-03T04:21:38.572Z,2.00
2022-08-03T04:24:07.591Z,2.08
2022-08-03T04:26:37.081Z,2.10
2022-08-03T04:29:05.886Z,2.63
2022-08-03T04:31:34.278Z,2.40
2022-08-03T04:34:02.586Z,2.58
2022-08-03T04:36:32.653Z,1.90
2022-08-03T04:39:00.391Z,2.13
2022-08-03T04:41:28.448Z,2.30
2022-08-03T04:43:58.013Z,2.13
2022-08-03T04:46:50.513Z,2.22
2022-08-03T04:49:21.196Z,2.65
2022-08-03T04:51:49.794Z,2.47
2022-08-03T04:54:17.445Z,2.08
2022-08-03T04:56:45.274Z,2.35
2022-08-03T04:59:13.017Z,2.65
2022-08-03T05:01:42.291Z,2.10
2022-08-03T05:04:10.116Z,2.08
2022-08-03T05:06:41.426Z,1.77
2022-08-03T05:09:16.154Z,2.22
2022-08-03T05:12:03.805Z,2.17
2022-08-03T05:14:31.426Z,2.28
2022-08-03T05:16:59.035Z,2.53
2022-08-03T05:19:26.708Z,2.38
2022-08-03T05:21:54.238Z,2.33
2022-08-03T05:24:21.881Z,2.33
2022-08-03T05:26:49.789Z,2.35
2022-08-03T05:29:17.413Z,2.70
2022-08-03T05:31:45.053Z,2.65
2022-08-03T05:34:12.722Z,2.50
2022-08-03T05:36:40.332Z,2.38
2022-08-03T05:39:07.940Z,2.30
2022-08-03T05:41:37.015Z,2.60
2022-08-03T05:44:05.275Z,2.40
2022-08-03T05:46:32.913Z,2.80
2022-08-03T05:49:00.662Z,2.70
2022-08-03T05:51:28.942Z,2.50
2022-08-03T05:53:56.541Z,3.17
2022-08-03T05:56:25.270Z,2.70
2022-08-03T05:58:53.082Z,2.60
2022-08-03T06:01:25.044Z,2.70
2022-08-03T06:03:52.897Z,2.70
2022-08-03T06:06:20.609Z,2.80
2022-08-03T06:08:48.893Z,2.42
2022-08-03T06:11:16.624Z,2.58
2022-08-03T06:13:44.757Z,2.20
2022-08-03T06:16:12.458Z,2.55
2022-08-03T06:18:40.553Z,2.30
2022-08-03T06:21:15.583Z,2.58
2022-08-03T06:23:52.933Z,2.63
2022-08-03T06:26:22.903Z,2.88
2022-08-03T06:28:53.165Z,3.20
2022-08-03T06:31:23.887Z,3.33
2022-08-03T06:34:34.182Z,3.10
2022-08-03T06:36:39.281Z,3.70
2022-08-03T06:39:08.161Z,3.40
2022-08-03T06:41:37.295Z,3.50
2022-08-03T06:44:10.412Z,2.58
2022-08-03T06:46:38.175Z,3.33
2022-08-03T06:49:05.925Z,3.47
2022-08-03T06:52:04.326Z,2.97
2022-08-03T06:54:22.325Z,2.83
2022-08-03T06:56:49.945Z,2.83
2022-08-03T07:00:10.769Z,2.67
2022-08-03T07:02:05.325Z,3.28
2022-08-03T07:04:33.385Z,3.13
2022-08-03T07:07:00.985Z,3.17
2022-08-03T07:09:28.587Z,3.15
2022-08-03T07:11:57.069Z,2.90
2022-08-03T07:14:24.642Z,3.95
2022-08-03T07:16:52.232Z,3.00
2022-08-03T07:19:19.895Z,3.08
2022-08-03T07:21:47.747Z,2.40
2022-08-03T07:24:15.388Z,2.45
2022-08-03T07:26:43.082Z,2.00
2022-08-03T07:29:15.391Z,2.13
2022-08-03T07:31:43.279Z,2.35
2022-08-03T07:34:11.039Z,2.50
2022-08-03T07:36:38.909Z,2.13
2022-08-03T07:39:16.545Z,2.22
2022-08-03T07:41:46.346Z,2.50
2022-08-03T07:44:14.558Z,2.20
2022-08-03T07:46:42.180Z,2.80
2022-08-03T07:49:09.973Z,2.58
2022-08-03T07:51:37.699Z,2.58
2022-08-03T07:54:05.481Z,2.10
2022-08-03T07:56:33.203Z,2.25
2022-08-03T07:59:02.401Z,2.03
2022-08-03T08:01:32.694Z,2.30
2022-08-03T08:04:00.486Z,2.15
2022-08-03T08:06:28.141Z,2.10
2022-08-03T08:08:59.524Z,2.35
2022-08-03T08:11:27.154Z,2.83
2022-08-03T08:13:54.769Z,5.20
2022-08-03T08:16:22.363Z,2.13
2022-08-03T08:18:49.982Z,2.10
2022-08-03T08:21:17.591Z,2.20
2022-08-03T08:23:48.029Z,2.65
2022-08-03T08:26:23.821Z,2.70
2022-08-03T08:28:52.738Z,2.55
2022-08-03T08:31:20.467Z,2.67
2022-08-03T08:34:03.503Z,2.47
2022-08-03T08:36:33.546Z,2.28
2022-08-03T08:39:01.304Z,2.45
2022-08-03T08:41:32.023Z,2.47
2022-08-03T08:44:00.489Z,2.20
2022-08-03T08:46:28.379Z,2.30
2022-08-03T08:48:56.366Z,2.30
2022-08-03T08:51:54.403Z,2.60
2022-08-03T08:56:44.227Z,2.25
2022-08-03T08:59:12.249Z,2.25
2022-08-03T09:01:39.937Z,2.45
2022-08-03T09:04:09.431Z,2.42
2022-08-03T09:06:37.051Z,2.50
2022-08-03T09:09:07.063Z,2.45
2022-08-03T09:11:53.447Z,2.70
2022-08-03T09:14:37.234Z,2.22
2022-08-03T09:17:07.954Z,2.33
2022-08-03T09:19:37.882Z,2.40
2022-08-03T09:22:09.234Z,2.50
2022-08-03T09:24:41.403Z,2.20
2022-08-03T09:27:13.540Z,2.72
2022-08-03T09:29:42.929Z,2.22
2022-08-03T09:32:11.494Z,2.30
2022-08-03T09:34:39.150Z,2.35
2022-08-03T09:37:14.948Z,2.42
2022-08-03T09:39:42.810Z,2.30
2022-08-03T09:42:14.774Z,2.58
2022-08-03T09:44:52.836Z,2.30
2022-08-03T09:47:33.349Z,2.00
2022-08-03T09:50:02.483Z,2.55
2022-08-03T09:52:49.344Z,2.53
2022-08-03T09:56:34.595Z,2.17
2022-08-03T09:58:14.308Z,2.50
2022-08-03T10:01:00.901Z,2.47
2022-08-03T10:03:30.229Z,2.10
2022-08-03T10:05:59.931Z,2.05
2022-08-03T10:08:27.886Z,2.65
2022-08-03T10:10:56.710Z,2.53
2022-08-03T10:13:24.830Z,2.92
2022-08-03T10:16:22.240Z,3.13
2022-08-03T10:18:40.211Z,2.78
2022-08-03T10:21:11.115Z,2.33
2022-08-03T10:23:39.177Z,2.57
2022-08-03T10:26:08.696Z,2.53
2022-08-03T10:28:40.228Z,2.78
2022-08-03T10:31:10.918Z,2.15
2022-08-03T10:33:51.013Z,2.80
2022-08-03T10:36:21.010Z,2.20
2022-08-03T10:38:56.566Z,2.42
2022-08-03T10:41:26.727Z,2.30
2022-08-03T10:43:59.348Z,2.10
2022-08-03T10:46:27.465Z,2.42
2022-08-03T10:48:56.582Z,2.47
2022-08-03T10:51:24.789Z,2.45
2022-08-03T10:53:54.804Z,2.20
2022-08-03T10:56:54.384Z,2.00
2022-08-03T10:59:40.962Z,2.53
2022-08-03T11:02:09.931Z,2.47
2022-08-03T11:04:37.573Z,2.55
2022-08-03T11:07:17.950Z,2.63
2022-08-03T11:09:50.129Z,2.30
2022-08-03T11:12:33.929Z,2.40
2022-08-03T11:15:02.846Z,2.40
2022-08-03T11:17:30.719Z,2.20
2022-08-03T11:19:58.753Z,2.38
2022-08-03T11:22:29.020Z,2.13
2022-08-03T11:24:57.573Z,2.20
2022-08-03T11:27:26.887Z,2.25
2022-08-03T11:30:10.960Z,2.08
2022-08-03T11:32:39.961Z,2.15
2022-08-03T11:35:17.206Z,1.85
2022-08-03T11:38:03.377Z,2.20
2022-08-03T11:40:41.982Z,2.10
2022-08-03T11:43:31.033Z,2.08
2022-08-03T11:46:04.112Z,2.35
2022-08-03T11:48:34.919Z,2.35
2022-08-03T11:51:03.375Z,2.30
2022-08-03T11:53:31.422Z,2.15
2022-08-03T11:56:00.031Z,1.85
2022-08-03T11:59:01.446Z,2.03
2022-08-03T12:01:21.281Z,2.10
2022-08-03T12:03:50.767Z,2.10
2022-08-03T12:06:19.218Z,1.70
2022-08-03T12:08:46.904Z,1.80
2022-08-03T12:11:15.566Z,1.92
2022-08-03T12:14:44.209Z,2.05
2022-08-03T12:19:03.793Z,2.25
2022-08-03T12:21:31.700Z,2.13
2022-08-03T12:24:03.325Z,1.90
2022-08-03T12:28:58.961Z,1.90
2022-08-03T12:31:26.831Z,1.95
2022-08-03T12:33:58.779Z,1.67
2022-08-03T12:36:27.888Z,1.92
2022-08-03T12:38:57.170Z,1.95
2022-08-03T12:41:31.709Z,2.17
2022-08-03T12:43:59.591Z,2.28
2022-08-03T12:46:31.703Z,2.22
2022-08-03T12:49:00.105Z,2.15
2022-08-03T12:51:29.061Z,2.28
2022-08-03T12:53:57.693Z,2.35
2022-08-03T12:56:25.413Z,1.80
2022-08-03T12:58:55.881Z,2.03
2022-08-03T13:01:24.454Z,2.00
2022-08-03T13:03:54.216Z,2.13
2022-08-03T13:06:25.976Z,2.00
2022-08-03T13:09:05.029Z,2.20
2022-08-03T13:11:57.884Z,2.05
2022-08-03T13:14:20.752Z,2.33
2022-08-03T13:16:49.300Z,2.03
2022-08-03T13:19:17.065Z,1.92
2022-08-03T13:22:03.582Z,1.80
2022-08-03T13:24:32.934Z,1.88
2022-08-03T13:27:01.012Z,2.30
2022-08-03T13:29:48.723Z,2.13
2022-08-03T13:32:16.378Z,2.33
2022-08-03T13:34:44.026Z,2.30
2022-08-03T13:37:12.206Z,2.58
2022-08-03T13:39:57.665Z,1.98
2022-08-03T13:42:26.595Z,2.25
2022-08-03T13:44:54.217Z,2.50
2022-08-03T13:47:22.242Z,2.05
2022-08-03T13:49:54.134Z,2.30
2022-08-03T13:52:28.697Z,2.05
2022-08-03T13:54:56.359Z,2.28
2022-08-03T13:58:03.860Z,2.90
2022-08-03T14:00:12.149Z,2.38
2022-08-03T14:02:39.940Z,2.38
2022-08-03T14:05:08.222Z,3.67
2022-08-03T14:07:35.887Z,2.30
2022-08-03T14:10:03.578Z,2.55
2022-08-03T14:12:31.931Z,2.40
2022-08-03T14:15:01.598Z,2.17
2022-08-03T14:17:42.304Z,2.40
2022-08-03T14:20:37.891Z,2.63
2022-08-03T14:23:04.860Z,2.40
2022-08-03T14:25:50.062Z,2.47
2022-08-03T14:28:20.677Z,2.20
2022-08-03T14:30:48.694Z,2.40
2022-08-03T14:33:16.489Z,2.22
2022-08-03T14:35:44.146Z,2.20
2022-08-03T14:38:11.804Z,2.78
2022-08-03T14:40:39.485Z,2.03
2022-08-03T14:43:07.246Z,2.30
2022-08-03T14:45:34.984Z,2.60
2022-08-03T14:50:34.340Z,2.13
2022-08-03T14:50:52.906Z,2.20
2022-08-03T14:53:20.784Z,1.98
2022-08-03T14:55:50.784Z,2.15
2022-08-03T14:58:21.027Z,2.20
2022-08-03T15:00:49.684Z,2.40
2022-08-03T15:03:20.352Z,1.92
2022-08-03T15:05:48.277Z,2.43
2022-08-03T15:08:16.185Z,2.17
2022-08-03T15:10:45.592Z,2.00
2022-08-03T15:13:13.861Z,2.67
2022-08-03T15:15:41.868Z,2.75
2022-08-03T15:18:09.734Z,2.15
2022-08-03T15:20:44.858Z,2.55
2022-08-03T15:23:13.543Z,2.50
2022-08-03T15:26:03.612Z,2.00
2022-08-03T15:28:28.819Z,1.98
2022-08-03T15:30:57.080Z,2.70
2022-08-03T15:33:24.774Z,2.50
2022-08-03T15:35:53.347Z,2.60
2022-08-03T15:38:25.743Z,2.38
2022-08-03T15:40:54.616Z,2.53
2022-08-03T15:43:22.746Z,2.80
2022-08-03T15:46:12.809Z,2.35
2022-08-03T15:48:38.072Z,2.05
2022-08-03T15:51:05.870Z,2.45
2022-08-03T15:53:33.922Z,2.50
2022-08-03T15:56:05.240Z,2.17
2022-08-03T15:59:03.266Z,2.38
2022-08-03T16:01:26.273Z,2.42
2022-08-03T16:03:53.874Z,2.35
2022-08-03T16:06:34.779Z,2.28
2022-08-03T16:09:22.874Z,2.60
2022-08-03T16:11:55.575Z,2.50
2022-08-03T16:14:34.273Z,2.58
2022-08-03T16:17:05.691Z,2.63
2022-08-03T16:19:33.530Z,2.70
2022-08-03T16:22:01.239Z,2.78
2022-08-03T16:24:28.824Z,2.30
2022-08-03T16:26:57.010Z,2.80
2022-08-03T16:29:24.674Z,2.60
2022-08-03T16:31:52.822Z,2.45
2022-08-03T16:34:21.312Z,2.63
2022-08-03T16:36:49.088Z,3.03
2022-08-03T16:39:16.823Z,2.90
2022-08-03T16:41:54.435Z,2.75
2022-08-03T16:44:31.706Z,2.70
2022-08-03T16:47:00.135Z,2.63
2022-08-03T16:49:54.297Z,2.70
2022-08-03T16:52:16.734Z,3.17
2022-08-03T16:54:50.535Z,3.10
2022-08-03T16:57:56.079Z,2.30
2022-08-03T17:00:08.616Z,2.50
2022-08-03T17:02:37.061Z,4.97
2022-08-03T17:05:05.577Z,3.42
2022-08-03T17:07:33.293Z,2.75
2022-08-03T17:10:01.364Z,2.88
2022-08-03T17:12:29.380Z,2.92
2022-08-03T17:14:58.194Z,2.92
2022-08-03T17:17:47.465Z,3.80
2022-08-03T17:20:18.756Z,3.33
2022-08-03T17:22:50.598Z,3.47
2022-08-03T17:25:22.149Z,3.53
2022-08-03T17:28:48.990Z,4.35
2022-08-03T17:31:22.949Z,3.40
2022-08-03T17:34:00.723Z,2.63
2022-08-03T17:36:47.505Z,3.13
2022-08-03T17:39:16.863Z,3.55
2022-08-03T17:41:50.201Z,2.95
2022-08-03T17:47:06.546Z,2.60
2022-08-03T17:49:39.880Z,2.60
2022-08-03T17:52:17.648Z,2.90
2022-08-03T17:55:56.723Z,3.42
2022-08-03T17:58:01.379Z,3.20
2022-08-03T18:00:51.618Z,3.00
2022-08-03T18:03:25.311Z,4.40
2022-08-03T18:06:11.660Z,3.40
2022-08-03T18:08:56.352Z,3.38
2022-08-03T18:11:37.156Z,3.28
2022-08-03T18:14:16.363Z,3.10
2022-08-03T18:16:45.784Z,3.67
2022-08-03T18:19:14.334Z,2.70
2022-08-03T18:22:03.569Z,3.15
2022-08-03T18:24:31.403Z,3.20
2022-08-03T18:27:02.623Z,3.20
2022-08-03T18:29:31.283Z,3.20
2022-08-03T18:32:03.849Z,3.10
2022-08-03T18:34:34.541Z,3.17
2022-08-03T18:37:07.513Z,2.85
2022-08-03T18:39:38.922Z,2.88
2022-08-03T18:42:25.598Z,2.80
2022-08-03T18:44:56.507Z,2.70
2022-08-03T18:47:50.547Z,2.50
2022-08-03T18:50:36.753Z,2.22
2022-08-03T18:53:19.682Z,2.80
2022-08-03T18:56:01.690Z,2.60
2022-08-03T18:58:35.460Z,2.53
2022-08-03T19:01:06.325Z,2.60
2022-08-03T19:03:58.537Z,2.60
2022-08-03T19:09:09.442Z,2.60
2022-08-03T19:12:14.065Z,2.90
2022-08-03T19:14:35.531Z,4.68
2022-08-03T19:17:10.710Z,5.53
2022-08-03T19:19:43.573Z,4.18
2022-08-03T19:22:16.025Z,3.40
2022-08-03T19:24:45.944Z,2.95
2022-08-03T19:27:14.090Z,3.40
2022-08-03T19:29:59.641Z,3.90
2022-08-03T19:32:29.615Z,3.33
2022-08-03T19:34:59.446Z,3.03
2022-08-03T19:37:38.021Z,3.10
2022-08-03T19:40:10.332Z,2.70
2022-08-03T19:42:41.408Z,3.22
2022-08-03T19:45:11.424Z,2.55
2022-08-03T19:48:06.768Z,2.95
2022-08-03T19:50:38.025Z,2.75
2022-08-03T19:53:13.323Z,2.47
2022-08-03T19:55:49.053Z,3.00
2022-08-03T19:58:17.569Z,3.38
2022-08-03T20:00:52.208Z,3.50
2022-08-03T20:03:23.338Z,3.25
2022-08-03T20:05:54.194Z,2.72
2022-08-03T20:08:22.816Z,2.83
2022-08-03T20:10:51.360Z,3.00
2022-08-03T20:13:19.779Z,3.15
2022-08-03T20:15:47.548Z,2.85
2022-08-03T20:18:21.217Z,2.78
2022-08-03T20:20:50.869Z,3.08
2022-08-03T20:23:19.858Z,3.05
2022-08-03T20:25:57.452Z,2.90
2022-08-03T20:28:31.446Z,2.63
2022-08-03T20:30:59.951Z,3.28
2022-08-03T20:33:46.572Z,2.70
2022-08-03T20:36:17.821Z,2.30
2022-08-03T20:38:47.010Z,3.00
2022-08-03T20:41:15.948Z,2.67
2022-08-03T20:43:43.763Z,2.75
2022-08-03T20:46:31.822Z,3.03
2022-08-03T20:48:59.635Z,3.08
2022-08-03T20:51:49.251Z,2.60
2022-08-03T20:54:29.156Z,3.20
2022-08-03T20:56:59.080Z,2.92
2022-08-03T20:59:35.036Z,2.50
2022-08-03T21:02:06.545Z,2.92
2022-08-03T21:04:34.133Z,3.05
2022-08-03T21:07:16.290Z,2.88
2022-08-03T21:09:51.914Z,3.30
2022-08-03T21:12:27.023Z,3.13
2022-08-03T21:12:55.011Z,2.50
2022-08-03T21:15:02.294Z,2.95
2022-08-03T21:17:40.577Z,2.88
2022-08-03T21:20:09.650Z,2.80
2022-08-03T21:22:38.231Z,3.05
2022-08-03T21:25:09.215Z,2.92
2022-08-03T21:27:37.311Z,2.70
2022-08-03T21:30:07.023Z,2.67
2022-08-03T21:32:34.828Z,2.67
2022-08-03T21:35:02.549Z,2.65
2022-08-03T21:37:30.204Z,2.55
2022-08-03T21:39:57.940Z,2.72
2022-08-03T21:42:25.661Z,3.08
2022-08-03T21:44:54.201Z,3.00
2022-08-03T21:47:24.239Z,2.90
2022-08-03T21:50:06.479Z,2.78
2022-08-03T21:52:41.449Z,3.28
2022-08-03T21:55:18.683Z,3.05
2022-08-03T21:57:53.460Z,3.17
2022-08-03T22:00:22.995Z,3.30
2022-08-03T22:02:56.062Z,3.00
2022-08-03T22:05:28.129Z,2.90
2022-08-03T22:08:10.493Z,3.10
2022-08-03T22:10:38.494Z,3.20
2022-08-03T22:13:06.152Z,2.75
2022-08-03T22:15:33.907Z,2.67
2022-08-03T22:18:04.561Z,2.92
2022-08-03T22:20:32.249Z,3.08
2022-08-03T22:23:04.008Z,3.33
2022-08-03T22:25:33.140Z,2.65
2022-08-03T22:28:09.456Z,3.00
2022-08-03T22:30:37.519Z,2.88
2022-08-03T22:33:11.610Z,2.45
2022-08-03T22:35:47.357Z,2.60
2022-08-03T22:38:16.509Z,2.60
2022-08-03T22:40:44.569Z,2.65
2022-08-03T22:43:12.164Z,3.03
2022-08-03T22:46:06.340Z,2.92
2022-08-03T22:48:28.386Z,2.22
2022-08-03T22:51:00.155Z,2.72
2022-08-03T22:53:28.004Z,2.70
2022-08-03T22:55:56.514Z,2.67
2022-08-03T22:58:24.603Z,2.97
2022-08-03T23:00:54.094Z,2.47
2022-08-03T23:03:23.954Z,2.97
2022-08-03T23:06:01.377Z,2.92
2022-08-03T23:08:32.565Z,2.97
2022-08-03T23:11:05.440Z,2.80
2022-08-03T23:13:33.546Z,2.80
2022-08-03T23:16:01.746Z,2.60
2022-08-03T23:18:32.065Z,3.10
2022-08-03T23:21:10.952Z,3.20
2022-08-03T23:23:43.925Z,2.80
2022-08-03T23:26:14.076Z,3.13
2022-08-03T23:28:46.076Z,3.10
2022-08-03T23:31:15.480Z,3.05
2022-08-03T23:33:45.592Z,2.70
2022-08-03T23:36:30.824Z,3.20
2022-08-03T23:39:01.808Z,3.17
2022-08-03T23:41:30.320Z,3.35
2022-08-03T23:43:59.116Z,3.10
2022-08-03T23:46:30.222Z,3.20
2022-08-03T23:48:58.965Z,3.22
2022-08-03T23:51:26.587Z,2.95
2022-08-03T23:54:03.569Z,3.15
2022-08-03T23:56:37.933Z,3.35
2022-08-03T23:59:14.901Z,3.20
